sensor_id;sensor_type;location;lat;lon;timestamp;P1;durP1;ratioP1;P2;durP2;ratioP2
4758;SDS011;2393;50.560;12.636;2022-10-16T00:00:24;0.30;;;0.20;;
4758;SDS011;2393;50.560;12.636;2022-10-16T00:07:53;0.40;;;0.30;;
4758;SDS011;2393;50.560;12.636;2022-10-16T00:27:01;0.30;;;0.20;;
4758;SDS011;2393;50.560;12.636;2022-10-16T00:29:33;0.40;;;0.23;;
4758;SDS011;2393;50.560;12.636;2022-10-16T01:37:55;0.30;;;0.20;;
4758;SDS011;2393;50.560;12.636;2022-10-16T02:05:12;0.30;;;0.20;;
4758;SDS011;2393;50.560;12.636;2022-10-16T02:07:43;0.40;;;0.30;;
4758;SDS011;2393;50.560;12.636;2022-10-16T02:10:20;0.40;;;0.40;;
4758;SDS011;2393;50.560;12.636;2022-10-16T02:12:53;0.30;;;0.20;;
4758;SDS011;2393;50.560;12.636;2022-10-16T02:15:26;0.30;;;0.20;;
4758;SDS011;2393;50.560;12.636;2022-10-16T02:17:54;0.40;;;0.30;;
4758;SDS011;2393;50.560;12.636;2022-10-16T02:20:25;0.60;;;0.20;;
4758;SDS011;2393;50.560;12.636;2022-10-16T02:22:59;0.40;;;0.30;;
4758;SDS011;2393;50.560;12.636;2022-10-16T02:25:29;0.30;;;0.20;;
4758;SDS011;2393;50.560;12.636;2022-10-16T02:28:00;0.40;;;0.40;;
4758;SDS011;2393;50.560;12.636;2022-10-16T03:37:55;0.30;;;0.20;;
4758;SDS011;2393;50.560;12.636;2022-10-16T03:40:46;0.30;;;0.20;;
4758;SDS011;2393;50.560;12.636;2022-10-16T03:43:33;4.10;;;0.37;;
4758;SDS011;2393;50.560;12.636;2022-10-16T03:46:06;4.73;;;0.27;;
4758;SDS011;2393;50.560;12.636;2022-10-16T03:48:37;4.87;;;0.20;;
4758;SDS011;2393;50.560;12.636;2022-10-16T03:51:06;0.40;;;0.27;;
4758;SDS011;2393;50.560;12.636;2022-10-16T03:53:36;4.93;;;0.30;;
4758;SDS011;2393;50.560;12.636;2022-10-16T03:56:04;0.30;;;0.20;;
4758;SDS011;2393;50.560;12.636;2022-10-16T03:58:33;0.40;;;0.30;;
4758;SDS011;2393;50.560;12.636;2022-10-16T04:01:01;0.30;;;0.20;;
4758;SDS011;2393;50.560;12.636;2022-10-16T04:03:32;1.37;;;0.47;;
4758;SDS011;2393;50.560;12.636;2022-10-16T04:06:13;1.00;;;0.30;;
4758;SDS011;2393;50.560;12.636;2022-10-16T04:08:58;0.30;;;0.30;;
4758;SDS011;2393;50.560;12.636;2022-10-16T04:11:30;0.40;;;0.20;;
4758;SDS011;2393;50.560;12.636;2022-10-16T04:14:09;0.50;;;0.30;;
4758;SDS011;2393;50.560;12.636;2022-10-16T04:19:33;0.30;;;0.20;;
4758;SDS011;2393;50.560;12.636;2022-10-16T04:22:24;0.40;;;0.20;;
4758;SDS011;2393;50.560;12.636;2022-10-16T04:46:04;2.00;;;0.30;;
4758;SDS011;2393;50.560;12.636;2022-10-16T04:56:18;0.40;;;0.20;;
4758;SDS011;2393;50.560;12.636;2022-10-16T04:58:47;0.30;;;0.20;;
4758;SDS011;2393;50.560;12.636;2022-10-16T05:01:19;0.30;;;0.20;;
4758;SDS011;2393;50.560;12.636;2022-10-16T05:03:50;0.30;;;0.20;;
4758;SDS011;2393;50.560;12.636;2022-10-16T05:06:20;0.30;;;0.20;;
4758;SDS011;2393;50.560;12.636;2022-10-16T05:09:11;0.30;;;0.20;;
4758;SDS011;2393;50.560;12.636;2022-10-16T05:27:06;0.40;;;0.20;;
4758;SDS011;2393;50.560;12.636;2022-10-16T05:30:08;0.30;;;0.20;;
4758;SDS011;2393;50.560;12.636;2022-10-16T05:33:08;0.30;;;0.20;;
4758;SDS011;2393;50.560;12.636;2022-10-16T05:36:02;0.30;;;0.20;;
4758;SDS011;2393;50.560;12.636;2022-10-16T05:39:04;0.30;;;0.20;;
4758;SDS011;2393;50.560;12.636;2022-10-16T05:48:56;0.30;;;0.20;;
4758;SDS011;2393;50.560;12.636;2022-10-16T05:51:36;0.70;;;0.20;;
4758;SDS011;2393;50.560;12.636;2022-10-16T05:59:13;0.40;;;0.30;;
4758;SDS011;2393;50.560;12.636;2022-10-16T06:03:35;0.40;;;0.30;;
4758;SDS011;2393;50.560;12.636;2022-10-16T06:14:49;0.30;;;0.20;;
4758;SDS011;2393;50.560;12.636;2022-10-16T06:21:59;0.40;;;0.40;;
4758;SDS011;2393;50.560;12.636;2022-10-16T06:28:18;0.53;;;0.53;;
4758;SDS011;2393;50.560;12.636;2022-10-16T06:36:00;0.70;;;0.70;;
4758;SDS011;2393;50.560;12.636;2022-10-16T06:39:27;0.73;;;0.73;;
4758;SDS011;2393;50.560;12.636;2022-10-16T06:42:18;0.50;;;0.50;;
4758;SDS011;2393;50.560;12.636;2022-10-16T06:45:19;0.40;;;0.30;;
4758;SDS011;2393;50.560;12.636;2022-10-16T06:48:35;0.87;;;0.40;;
4758;SDS011;2393;50.560;12.636;2022-10-16T06:51:30;0.67;;;0.40;;
4758;SDS011;2393;50.560;12.636;2022-10-16T06:54:16;0.67;;;0.57;;
4758;SDS011;2393;50.560;12.636;2022-10-16T07:00:21;0.40;;;0.30;;
4758;SDS011;2393;50.560;12.636;2022-10-16T07:11:24;0.40;;;0.30;;
4758;SDS011;2393;50.560;12.636;2022-10-16T08:24:31;0.50;;;0.50;;
4758;SDS011;2393;50.560;12.636;2022-10-16T08:27:04;9.33;;;0.60;;
4758;SDS011;2393;50.560;12.636;2022-10-16T08:29:48;0.87;;;0.60;;
4758;SDS011;2393;50.560;12.636;2022-10-16T08:32:16;1.07;;;0.40;;
4758;SDS011;2393;50.560;12.636;2022-10-16T08:35:35;1.07;;;0.50;;
4758;SDS011;2393;50.560;12.636;2022-10-16T08:39:18;0.30;;;0.27;;
4758;SDS011;2393;50.560;12.636;2022-10-16T08:43:35;1.03;;;0.50;;
4758;SDS011;2393;50.560;12.636;2022-10-16T08:46:38;1.70;;;0.63;;
4758;SDS011;2393;50.560;12.636;2022-10-16T08:49:23;0.60;;;0.60;;
4758;SDS011;2393;50.560;12.636;2022-10-16T08:52:13;0.57;;;0.57;;
4758;SDS011;2393;50.560;12.636;2022-10-16T08:55:04;8.73;;;0.50;;
4758;SDS011;2393;50.560;12.636;2022-10-16T08:57:35;2.20;;;0.50;;
4758;SDS011;2393;50.560;12.636;2022-10-16T09:00:15;0.67;;;0.30;;
4758;SDS011;2393;50.560;12.636;2022-10-16T09:03:10;1.03;;;0.33;;
4758;SDS011;2393;50.560;12.636;2022-10-16T09:06:38;0.40;;;0.30;;
4758;SDS011;2393;50.560;12.636;2022-10-16T09:09:32;0.90;;;0.50;;
4758;SDS011;2393;50.560;12.636;2022-10-16T09:12:17;0.40;;;0.30;;
4758;SDS011;2393;50.560;12.636;2022-10-16T09:15:11;0.40;;;0.30;;
4758;SDS011;2393;50.560;12.636;2022-10-16T09:20:49;0.87;;;0.87;;
4758;SDS011;2393;50.560;12.636;2022-10-16T09:23:33;0.83;;;0.43;;
4758;SDS011;2393;50.560;12.636;2022-10-16T09:26:09;0.40;;;0.40;;
4758;SDS011;2393;50.560;12.636;2022-10-16T09:28:53;1.17;;;0.50;;
4758;SDS011;2393;50.560;12.636;2022-10-16T09:31:36;0.30;;;0.30;;
4758;SDS011;2393;50.560;12.636;2022-10-16T09:34:12;0.60;;;0.60;;
4758;SDS011;2393;50.560;12.636;2022-10-16T09:37:03;0.60;;;0.40;;
4758;SDS011;2393;50.560;12.636;2022-10-16T09:39:49;1.47;;;0.60;;
4758;SDS011;2393;50.560;12.636;2022-10-16T09:42:35;2.20;;;0.40;;
4758;SDS011;2393;50.560;12.636;2022-10-16T09:45:19;1.10;;;0.80;;
4758;SDS011;2393;50.560;12.636;2022-10-16T09:47:50;0.70;;;0.70;;
4758;SDS011;2393;50.560;12.636;2022-10-16T09:50:28;0.70;;;0.60;;
4758;SDS011;2393;50.560;12.636;2022-10-16T09:53:03;0.87;;;0.40;;
4758;SDS011;2393;50.560;12.636;2022-10-16T09:55:53;1.63;;;0.30;;
4758;SDS011;2393;50.560;12.636;2022-10-16T09:58:23;0.73;;;0.63;;
4758;SDS011;2393;50.560;12.636;2022-10-16T10:00:55;3.07;;;0.40;;
4758;SDS011;2393;50.560;12.636;2022-10-16T10:03:44;0.33;;;0.30;;
4758;SDS011;2393;50.560;12.636;2022-10-16T10:06:17;1.13;;;0.50;;
4758;SDS011;2393;50.560;12.636;2022-10-16T10:08:56;0.50;;;0.40;;
4758;SDS011;2393;50.560;12.636;2022-10-16T10:14:25;0.60;;;0.60;;
4758;SDS011;2393;50.560;12.636;2022-10-16T10:17:08;0.60;;;0.53;;
4758;SDS011;2393;50.560;12.636;2022-10-16T10:19:41;0.60;;;0.50;;
4758;SDS011;2393;50.560;12.636;2022-10-16T10:25:23;5.60;;;0.40;;
4758;SDS011;2393;50.560;12.636;2022-10-16T10:31:01;0.50;;;0.50;;
4758;SDS011;2393;50.560;12.636;2022-10-16T10:33:38;0.40;;;0.30;;
4758;SDS011;2393;50.560;12.636;2022-10-16T10:36:16;0.53;;;0.53;;
4758;SDS011;2393;50.560;12.636;2022-10-16T10:38:51;1.37;;;0.50;;
4758;SDS011;2393;50.560;12.636;2022-10-16T10:41:44;0.70;;;0.70;;
4758;SDS011;2393;50.560;12.636;2022-10-16T10:44:44;0.40;;;0.40;;
4758;SDS011;2393;50.560;12.636;2022-10-16T10:47:36;3.90;;;0.30;;
4758;SDS011;2393;50.560;12.636;2022-10-16T10:50:13;0.70;;;0.33;;
4758;SDS011;2393;50.560;12.636;2022-10-16T10:55:39;1.50;;;0.37;;
4758;SDS011;2393;50.560;12.636;2022-10-16T10:58:19;0.50;;;0.50;;
4758;SDS011;2393;50.560;12.636;2022-10-16T11:01:06;2.10;;;0.90;;
4758;SDS011;2393;50.560;12.636;2022-10-16T11:03:58;1.13;;;0.40;;
4758;SDS011;2393;50.560;12.636;2022-10-16T11:06:42;0.60;;;0.50;;
4758;SDS011;2393;50.560;12.636;2022-10-16T11:09:15;0.30;;;0.20;;
4758;SDS011;2393;50.560;12.636;2022-10-16T11:11:46;0.50;;;0.43;;
4758;SDS011;2393;50.560;12.636;2022-10-16T11:14:23;0.63;;;0.30;;
4758;SDS011;2393;50.560;12.636;2022-10-16T11:16:57;1.93;;;0.47;;
4758;SDS011;2393;50.560;12.636;2022-10-16T11:19:31;1.47;;;0.60;;
4758;SDS011;2393;50.560;12.636;2022-10-16T11:22:07;0.70;;;0.50;;
4758;SDS011;2393;50.560;12.636;2022-10-16T11:24:45;0.50;;;0.50;;
4758;SDS011;2393;50.560;12.636;2022-10-16T11:27:22;0.50;;;0.30;;
4758;SDS011;2393;50.560;12.636;2022-10-16T11:29:56;1.03;;;0.30;;
4758;SDS011;2393;50.560;12.636;2022-10-16T11:32:28;1.03;;;0.30;;
4758;SDS011;2393;50.560;12.636;2022-10-16T11:35:12;0.30;;;0.27;;
4758;SDS011;2393;50.560;12.636;2022-10-16T11:37:48;1.53;;;0.50;;
4758;SDS011;2393;50.560;12.636;2022-10-16T11:40:27;5.40;;;1.10;;
4758;SDS011;2393;50.560;12.636;2022-10-16T11:43:02;1.83;;;0.87;;
4758;SDS011;2393;50.560;12.636;2022-10-16T11:45:42;0.87;;;0.50;;
4758;SDS011;2393;50.560;12.636;2022-10-16T11:48:16;2.50;;;0.70;;
4758;SDS011;2393;50.560;12.636;2022-10-16T11:51:02;0.60;;;0.60;;
4758;SDS011;2393;50.560;12.636;2022-10-16T11:53:50;1.73;;;0.30;;
4758;SDS011;2393;50.560;12.636;2022-10-16T11:56:35;0.47;;;0.33;;
4758;SDS011;2393;50.560;12.636;2022-10-16T11:59:07;1.37;;;0.80;;
4758;SDS011;2393;50.560;12.636;2022-10-16T12:01:53;0.70;;;0.70;;
4758;SDS011;2393;50.560;12.636;2022-10-16T12:05:00;0.50;;;0.50;;
4758;SDS011;2393;50.560;12.636;2022-10-16T12:07:47;2.20;;;0.50;;
4758;SDS011;2393;50.560;12.636;2022-10-16T12:10:27;1.90;;;0.30;;
4758;SDS011;2393;50.560;12.636;2022-10-16T12:13:25;0.97;;;0.50;;
4758;SDS011;2393;50.560;12.636;2022-10-16T12:16:19;0.60;;;0.60;;
4758;SDS011;2393;50.560;12.636;2022-10-16T12:19:02;0.40;;;0.30;;
4758;SDS011;2393;50.560;12.636;2022-10-16T12:21:41;0.40;;;0.30;;
4758;SDS011;2393;50.560;12.636;2022-10-16T12:24:36;0.40;;;0.33;;
4758;SDS011;2393;50.560;12.636;2022-10-16T12:27:20;0.60;;;0.40;;
4758;SDS011;2393;50.560;12.636;2022-10-16T12:29:55;1.43;;;0.50;;
4758;SDS011;2393;50.560;12.636;2022-10-16T12:32:30;3.03;;;0.40;;
4758;SDS011;2393;50.560;12.636;2022-10-16T12:35:17;2.33;;;0.60;;
4758;SDS011;2393;50.560;12.636;2022-10-16T12:37:51;0.73;;;0.73;;
4758;SDS011;2393;50.560;12.636;2022-10-16T12:40:54;0.40;;;0.30;;
4758;SDS011;2393;50.560;12.636;2022-10-16T12:43:34;2.10;;;0.50;;
4758;SDS011;2393;50.560;12.636;2022-10-16T12:46:35;2.20;;;0.53;;
4758;SDS011;2393;50.560;12.636;2022-10-16T12:49:14;0.50;;;0.50;;
4758;SDS011;2393;50.560;12.636;2022-10-16T12:51:52;0.40;;;0.30;;
4758;SDS011;2393;50.560;12.636;2022-10-16T12:54:30;0.60;;;0.60;;
4758;SDS011;2393;50.560;12.636;2022-10-16T12:57:09;1.33;;;0.50;;
4758;SDS011;2393;50.560;12.636;2022-10-16T12:59:57;2.30;;;0.93;;
4758;SDS011;2393;50.560;12.636;2022-10-16T13:02:42;8.57;;;3.10;;
4758;SDS011;2393;50.560;12.636;2022-10-16T13:05:52;4.30;;;1.53;;
4758;SDS011;2393;50.560;12.636;2022-10-16T13:12:11;5.37;;;1.67;;
4758;SDS011;2393;50.560;12.636;2022-10-16T13:18:12;5.57;;;2.80;;
4758;SDS011;2393;50.560;12.636;2022-10-16T13:20:51;1.47;;;1.10;;
4758;SDS011;2393;50.560;12.636;2022-10-16T13:23:31;2.10;;;1.70;;
4758;SDS011;2393;50.560;12.636;2022-10-16T13:26:12;2.13;;;1.80;;
4758;SDS011;2393;50.560;12.636;2022-10-16T13:28:49;2.10;;;1.60;;
4758;SDS011;2393;50.560;12.636;2022-10-16T13:31:18;6.27;;;4.03;;
4758;SDS011;2393;50.560;12.636;2022-10-16T13:33:54;2.80;;;1.40;;
4758;SDS011;2393;50.560;12.636;2022-10-16T13:36:26;8.30;;;2.97;;
4758;SDS011;2393;50.560;12.636;2022-10-16T13:39:11;12.93;;;0.93;;
4758;SDS011;2393;50.560;12.636;2022-10-16T13:41:41;0.40;;;0.40;;
4758;SDS011;2393;50.560;12.636;2022-10-16T13:44:13;1.70;;;0.83;;
4758;SDS011;2393;50.560;12.636;2022-10-16T15:52:24;6.77;;;2.10;;
4758;SDS011;2393;50.560;12.636;2022-10-16T15:54:53;3.83;;;2.40;;
4758;SDS011;2393;50.560;12.636;2022-10-16T15:57:22;2.83;;;1.80;;
4758;SDS011;2393;50.560;12.636;2022-10-16T15:59:50;2.80;;;2.20;;
4758;SDS011;2393;50.560;12.636;2022-10-16T16:02:18;2.10;;;1.90;;
4758;SDS011;2393;50.560;12.636;2022-10-16T16:04:46;6.47;;;2.27;;
4758;SDS011;2393;50.560;12.636;2022-10-16T16:07:15;8.23;;;2.57;;
4758;SDS011;2393;50.560;12.636;2022-10-16T16:09:44;6.23;;;2.67;;
4758;SDS011;2393;50.560;12.636;2022-10-16T16:12:13;2.10;;;1.90;;
4758;SDS011;2393;50.560;12.636;2022-10-16T16:14:41;3.30;;;0.97;;
4758;SDS011;2393;50.560;12.636;2022-10-16T16:17:12;6.20;;;1.30;;
4758;SDS011;2393;50.560;12.636;2022-10-16T16:19:40;22.47;;;8.53;;
4758;SDS011;2393;50.560;12.636;2022-10-16T16:22:08;2.77;;;1.87;;
4758;SDS011;2393;50.560;12.636;2022-10-16T16:24:38;3.17;;;2.30;;
4758;SDS011;2393;50.560;12.636;2022-10-16T16:27:10;3.80;;;2.40;;
4758;SDS011;2393;50.560;12.636;2022-10-16T16:29:39;13.10;;;5.83;;
4758;SDS011;2393;50.560;12.636;2022-10-16T16:32:08;9.00;;;4.90;;
4758;SDS011;2393;50.560;12.636;2022-10-16T16:34:36;2.93;;;2.10;;
4758;SDS011;2393;50.560;12.636;2022-10-16T16:37:04;1.17;;;1.17;;
4758;SDS011;2393;50.560;12.636;2022-10-16T16:39:37;0.97;;;0.97;;
4758;SDS011;2393;50.560;12.636;2022-10-16T16:42:23;1.23;;;1.20;;
4758;SDS011;2393;50.560;12.636;2022-10-16T16:44:55;0.70;;;0.70;;
4758;SDS011;2393;50.560;12.636;2022-10-16T16:47:28;0.60;;;0.60;;
4758;SDS011;2393;50.560;12.636;2022-10-16T16:49:59;5.30;;;0.90;;
4758;SDS011;2393;50.560;12.636;2022-10-16T16:52:43;1.10;;;1.00;;
4758;SDS011;2393;50.560;12.636;2022-10-16T16:55:21;1.40;;;1.40;;
4758;SDS011;2393;50.560;12.636;2022-10-16T17:00:59;11.00;;;6.00;;
4758;SDS011;2393;50.560;12.636;2022-10-16T17:03:48;6.00;;;3.77;;
4758;SDS011;2393;50.560;12.636;2022-10-16T17:06:41;2.57;;;2.37;;
4758;SDS011;2393;50.560;12.636;2022-10-16T17:09:18;1.90;;;1.63;;
4758;SDS011;2393;50.560;12.636;2022-10-16T17:11:46;1.57;;;1.47;;
4758;SDS011;2393;50.560;12.636;2022-10-16T17:14:20;1.80;;;1.70;;
4758;SDS011;2393;50.560;12.636;2022-10-16T17:16:48;1.87;;;1.77;;
4758;SDS011;2393;50.560;12.636;2022-10-16T17:19:17;6.83;;;2.87;;
4758;SDS011;2393;50.560;12.636;2022-10-16T17:22:14;12.73;;;6.00;;
4758;SDS011;2393;50.560;12.636;2022-10-16T17:25:05;21.60;;;7.50;;
4758;SDS011;2393;50.560;12.636;2022-10-16T17:28:17;13.20;;;5.80;;
4758;SDS011;2393;50.560;12.636;2022-10-16T17:39:52;20.00;;;7.67;;
4758;SDS011;2393;50.560;12.636;2022-10-16T17:42:23;14.70;;;7.23;;
4758;SDS011;2393;50.560;12.636;2022-10-16T17:45:01;13.30;;;6.63;;
4758;SDS011;2393;50.560;12.636;2022-10-16T17:52:57;3.17;;;2.57;;
4758;SDS011;2393;50.560;12.636;2022-10-16T17:56:50;7.40;;;3.43;;
4758;SDS011;2393;50.560;12.636;2022-10-16T18:00:25;5.90;;;3.10;;
4758;SDS011;2393;50.560;12.636;2022-10-16T18:08:45;10.53;;;4.70;;
4758;SDS011;2393;50.560;12.636;2022-10-16T18:11:17;20.27;;;7.80;;
4758;SDS011;2393;50.560;12.636;2022-10-16T18:23:19;11.10;;;2.90;;
4758;SDS011;2393;50.560;12.636;2022-10-16T18:25:53;3.20;;;2.97;;
4758;SDS011;2393;50.560;12.636;2022-10-16T18:28:21;5.43;;;3.50;;
4758;SDS011;2393;50.560;12.636;2022-10-16T18:30:53;6.53;;;2.87;;
4758;SDS011;2393;50.560;12.636;2022-10-16T18:33:22;5.80;;;2.60;;
4758;SDS011;2393;50.560;12.636;2022-10-16T18:35:51;3.53;;;2.73;;
4758;SDS011;2393;50.560;12.636;2022-10-16T18:38:19;5.33;;;3.37;;
4758;SDS011;2393;50.560;12.636;2022-10-16T18:40:49;4.30;;;3.23;;
4758;SDS011;2393;50.560;12.636;2022-10-16T18:43:17;5.23;;;4.10;;
4758;SDS011;2393;50.560;12.636;2022-10-16T18:45:53;4.67;;;2.73;;
4758;SDS011;2393;50.560;12.636;2022-10-16T18:48:22;2.20;;;2.10;;
4758;SDS011;2393;50.560;12.636;2022-10-16T18:50:51;6.47;;;1.90;;
4758;SDS011;2393;50.560;12.636;2022-10-16T18:53:19;2.60;;;1.90;;
4758;SDS011;2393;50.560;12.636;2022-10-16T18:55:52;3.90;;;2.77;;
4758;SDS011;2393;50.560;12.636;2022-10-16T18:58:20;2.00;;;1.90;;
4758;SDS011;2393;50.560;12.636;2022-10-16T19:00:48;25.33;;;2.53;;
4758;SDS011;2393;50.560;12.636;2022-10-16T19:03:16;3.30;;;2.00;;
4758;SDS011;2393;50.560;12.636;2022-10-16T19:05:45;5.00;;;2.57;;
4758;SDS011;2393;50.560;12.636;2022-10-16T19:08:13;5.07;;;2.37;;
4758;SDS011;2393;50.560;12.636;2022-10-16T19:10:41;2.87;;;1.87;;
4758;SDS011;2393;50.560;12.636;2022-10-16T19:13:10;3.07;;;2.20;;
4758;SDS011;2393;50.560;12.636;2022-10-16T19:15:41;3.87;;;2.13;;
4758;SDS011;2393;50.560;12.636;2022-10-16T19:18:23;2.10;;;1.90;;
4758;SDS011;2393;50.560;12.636;2022-10-16T19:20:52;1.40;;;1.30;;
4758;SDS011;2393;50.560;12.636;2022-10-16T19:23:21;2.70;;;2.10;;
4758;SDS011;2393;50.560;12.636;2022-10-16T19:25:49;1.53;;;1.43;;
4758;SDS011;2393;50.560;12.636;2022-10-16T19:28:18;4.27;;;2.50;;
4758;SDS011;2393;50.560;12.636;2022-10-16T19:30:46;2.47;;;2.10;;
4758;SDS011;2393;50.560;12.636;2022-10-16T19:33:14;3.00;;;2.30;;
4758;SDS011;2393;50.560;12.636;2022-10-16T19:35:42;2.87;;;2.23;;
4758;SDS011;2393;50.560;12.636;2022-10-16T19:38:11;3.90;;;2.27;;
4758;SDS011;2393;50.560;12.636;2022-10-16T19:41:03;3.30;;;2.70;;
4758;SDS011;2393;50.560;12.636;2022-10-16T19:44:02;3.00;;;2.70;;
4758;SDS011;2393;50.560;12.636;2022-10-16T19:46:35;5.33;;;3.00;;
4758;SDS011;2393;50.560;12.636;2022-10-16T19:49:04;5.53;;;3.50;;
4758;SDS011;2393;50.560;12.636;2022-10-16T19:51:34;5.67;;;4.10;;
4758;SDS011;2393;50.560;12.636;2022-10-16T19:54:03;4.03;;;3.03;;
4758;SDS011;2393;50.560;12.636;2022-10-16T19:56:32;4.13;;;3.40;;
4758;SDS011;2393;50.560;12.636;2022-10-16T19:59:03;6.27;;;3.73;;
4758;SDS011;2393;50.560;12.636;2022-10-16T20:01:32;5.53;;;4.10;;
4758;SDS011;2393;50.560;12.636;2022-10-16T20:04:01;6.73;;;4.20;;
4758;SDS011;2393;50.560;12.636;2022-10-16T20:06:30;9.70;;;3.90;;
4758;SDS011;2393;50.560;12.636;2022-10-16T20:08:59;5.07;;;3.90;;
4758;SDS011;2393;50.560;12.636;2022-10-16T20:11:28;6.93;;;3.77;;
4758;SDS011;2393;50.560;12.636;2022-10-16T20:14:04;8.00;;;3.07;;
4758;SDS011;2393;50.560;12.636;2022-10-16T20:16:33;9.30;;;3.77;;
4758;SDS011;2393;50.560;12.636;2022-10-16T20:19:04;6.17;;;2.77;;
4758;SDS011;2393;50.560;12.636;2022-10-16T20:21:33;3.90;;;1.87;;
4758;SDS011;2393;50.560;12.636;2022-10-16T20:24:02;3.37;;;2.37;;
4758;SDS011;2393;50.560;12.636;2022-10-16T20:26:33;1.20;;;1.20;;
4758;SDS011;2393;50.560;12.636;2022-10-16T20:29:05;1.80;;;1.70;;
4758;SDS011;2393;50.560;12.636;2022-10-16T20:31:34;0.90;;;0.90;;
4758;SDS011;2393;50.560;12.636;2022-10-16T20:34:03;2.43;;;1.57;;
4758;SDS011;2393;50.560;12.636;2022-10-16T20:36:35;1.73;;;1.00;;
4758;SDS011;2393;50.560;12.636;2022-10-16T20:39:04;1.30;;;1.20;;
4758;SDS011;2393;50.560;12.636;2022-10-16T20:41:34;1.00;;;1.00;;
4758;SDS011;2393;50.560;12.636;2022-10-16T20:44:03;0.90;;;0.90;;
4758;SDS011;2393;50.560;12.636;2022-10-16T20:46:33;1.57;;;1.47;;
4758;SDS011;2393;50.560;12.636;2022-10-16T20:49:01;2.50;;;1.47;;
4758;SDS011;2393;50.560;12.636;2022-10-16T20:51:42;1.97;;;1.23;;
4758;SDS011;2393;50.560;12.636;2022-10-16T20:54:11;2.00;;;1.67;;
4758;SDS011;2393;50.560;12.636;2022-10-16T20:56:39;1.27;;;1.17;;
4758;SDS011;2393;50.560;12.636;2022-10-16T20:59:07;1.77;;;1.10;;
4758;SDS011;2393;50.560;12.636;2022-10-16T21:01:38;1.00;;;0.90;;
4758;SDS011;2393;50.560;12.636;2022-10-16T21:04:07;1.33;;;0.80;;
4758;SDS011;2393;50.560;12.636;2022-10-16T21:06:36;3.53;;;0.90;;
4758;SDS011;2393;50.560;12.636;2022-10-16T21:09:05;1.17;;;0.90;;
4758;SDS011;2393;50.560;12.636;2022-10-16T21:11:34;0.87;;;0.87;;
4758;SDS011;2393;50.560;12.636;2022-10-16T21:14:04;0.80;;;0.80;;
4758;SDS011;2393;50.560;12.636;2022-10-16T21:16:33;0.80;;;0.80;;
4758;SDS011;2393;50.560;12.636;2022-10-16T21:19:02;1.00;;;1.00;;
4758;SDS011;2393;50.560;12.636;2022-10-16T21:21:32;0.77;;;0.77;;
4758;SDS011;2393;50.560;12.636;2022-10-16T21:24:01;1.40;;;1.37;;
4758;SDS011;2393;50.560;12.636;2022-10-16T21:26:30;0.83;;;0.83;;
4758;SDS011;2393;50.560;12.636;2022-10-16T21:28:59;0.83;;;0.83;;
4758;SDS011;2393;50.560;12.636;2022-10-16T21:31:29;0.90;;;0.90;;
4758;SDS011;2393;50.560;12.636;2022-10-16T21:33:58;1.47;;;1.30;;
4758;SDS011;2393;50.560;12.636;2022-10-16T21:36:28;2.40;;;2.20;;
4758;SDS011;2393;50.560;12.636;2022-10-16T21:38:59;2.10;;;1.50;;
4758;SDS011;2393;50.560;12.636;2022-10-16T21:41:27;1.13;;;1.13;;
4758;SDS011;2393;50.560;12.636;2022-10-16T21:43:57;5.93;;;1.30;;
4758;SDS011;2393;50.560;12.636;2022-10-16T21:46:26;1.60;;;1.50;;
4758;SDS011;2393;50.560;12.636;2022-10-16T21:48:57;2.33;;;1.70;;
4758;SDS011;2393;50.560;12.636;2022-10-16T21:51:29;6.73;;;1.67;;
4758;SDS011;2393;50.560;12.636;2022-10-16T21:53:59;4.20;;;1.73;;
4758;SDS011;2393;50.560;12.636;2022-10-16T21:56:28;2.53;;;1.97;;
4758;SDS011;2393;50.560;12.636;2022-10-16T21:58:56;2.80;;;1.70;;
4758;SDS011;2393;50.560;12.636;2022-10-16T22:01:25;6.43;;;1.50;;
4758;SDS011;2393;50.560;12.636;2022-10-16T22:03:54;1.70;;;1.60;;
4758;SDS011;2393;50.560;12.636;2022-10-16T22:06:23;4.47;;;2.50;;
4758;SDS011;2393;50.560;12.636;2022-10-16T22:08:58;1.83;;;1.73;;
4758;SDS011;2393;50.560;12.636;2022-10-16T22:11:27;2.00;;;1.40;;
4758;SDS011;2393;50.560;12.636;2022-10-16T22:14:50;1.83;;;1.70;;
4758;SDS011;2393;50.560;12.636;2022-10-16T22:17:18;1.57;;;1.57;;
4758;SDS011;2393;50.560;12.636;2022-10-16T22:19:46;1.60;;;1.50;;
4758;SDS011;2393;50.560;12.636;2022-10-16T22:22:14;1.53;;;1.43;;
4758;SDS011;2393;50.560;12.636;2022-10-16T22:24:45;1.10;;;1.00;;
4758;SDS011;2393;50.560;12.636;2022-10-16T22:27:13;1.67;;;1.57;;
4758;SDS011;2393;50.560;12.636;2022-10-16T22:29:41;1.67;;;1.37;;
4758;SDS011;2393;50.560;12.636;2022-10-16T22:32:09;3.63;;;1.40;;
4758;SDS011;2393;50.560;12.636;2022-10-16T22:34:37;1.00;;;1.00;;
4758;SDS011;2393;50.560;12.636;2022-10-16T22:37:06;1.87;;;1.10;;
4758;SDS011;2393;50.560;12.636;2022-10-16T22:39:34;1.03;;;1.03;;
4758;SDS011;2393;50.560;12.636;2022-10-16T22:42:03;1.23;;;1.10;;
4758;SDS011;2393;50.560;12.636;2022-10-16T22:44:31;1.20;;;1.20;;
4758;SDS011;2393;50.560;12.636;2022-10-16T22:46:59;1.23;;;0.90;;
4758;SDS011;2393;50.560;12.636;2022-10-16T22:49:27;0.90;;;0.90;;
4758;SDS011;2393;50.560;12.636;2022-10-16T22:51:55;0.77;;;0.77;;
4758;SDS011;2393;50.560;12.636;2022-10-16T22:54:23;0.67;;;0.67;;
4758;SDS011;2393;50.560;12.636;2022-10-16T22:56:52;9.37;;;0.90;;
4758;SDS011;2393;50.560;12.636;2022-10-16T22:59:21;0.50;;;0.50;;
4758;SDS011;2393;50.560;12.636;2022-10-16T23:01:49;1.07;;;0.90;;
4758;SDS011;2393;50.560;12.636;2022-10-16T23:04:17;2.10;;;0.60;;
4758;SDS011;2393;50.560;12.636;2022-10-16T23:06:45;0.80;;;0.67;;
4758;SDS011;2393;50.560;12.636;2022-10-16T23:09:13;0.40;;;0.40;;
4758;SDS011;2393;50.560;12.636;2022-10-16T23:11:41;0.70;;;0.47;;
4758;SDS011;2393;50.560;12.636;2022-10-16T23:14:09;1.00;;;0.90;;
4758;SDS011;2393;50.560;12.636;2022-10-16T23:16:39;1.20;;;0.80;;
4758;SDS011;2393;50.560;12.636;2022-10-16T23:19:07;1.03;;;0.77;;
4758;SDS011;2393;50.560;12.636;2022-10-16T23:21:40;3.60;;;0.90;;
4758;SDS011;2393;50.560;12.636;2022-10-16T23:24:08;0.50;;;0.50;;
4758;SDS011;2393;50.560;12.636;2022-10-16T23:26:36;0.60;;;0.60;;
4758;SDS011;2393;50.560;12.636;2022-10-16T23:29:04;0.90;;;0.70;;
4758;SDS011;2393;50.560;12.636;2022-10-16T23:31:33;0.73;;;0.73;;
4758;SDS011;2393;50.560;12.636;2022-10-16T23:34:02;0.60;;;0.60;;
4758;SDS011;2393;50.560;12.636;2022-10-16T23:36:30;0.60;;;0.53;;
4758;SDS011;2393;50.560;12.636;2022-10-16T23:38:58;0.60;;;0.50;;
4758;SDS011;2393;50.560;12.636;2022-10-16T23:41:26;0.60;;;0.60;;
4758;SDS011;2393;50.560;12.636;2022-10-16T23:43:54;0.73;;;0.73;;
4758;SDS011;2393;50.560;12.636;2022-10-16T23:46:22;0.50;;;0.50;;
4758;SDS011;2393;50.560;12.636;2022-10-16T23:48:50;7.27;;;0.70;;
4758;SDS011;2393;50.560;12.636;2022-10-16T23:51:20;4.83;;;0.63;;
4758;SDS011;2393;50.560;12.636;2022-10-16T23:53:48;0.40;;;0.40;;
4758;SDS011;2393;50.560;12.636;2022-10-16T23:56:18;1.00;;;1.00;;
4758;SDS011;2393;50.560;12.636;2022-10-16T23:58:46;1.37;;;0.90;;
